Time;durP1;ratioP1;P1;durP2;ratioP2;P2;SDS_P1;SDS_P2;PMS_P1;PMS_P2;Temp;Humidity;BMP_temperature;BMP_pressure;BME280_temperature;BME280_humidity;BME280_pressure;Samples;Min_cycle;Max_cycle;Signal;HPM_P1;HPM_P2
2023/08/11 00:00:22;;;;;;;10.30;4.20;;;15.90;99.90;;;;;;5034252;28;20037;-53
2023/08/11 00:02:52;;;;;;;9.43;3.92;;;15.80;99.90;;;;;;5016103;28;20067;-49
2023/08/11 00:05:18;;;;;;;6.53;3.63;;;15.80;99.90;;;;;;5034323;28;20032;-54
2023/08/11 00:07:50;;;;;;;6.38;3.67;;;15.80;99.90;;;;;;5033710;28;20041;-52
2023/08/11 00:10:23;;;;;;;5.53;3.50;;;15.80;99.90;;;;;;5034178;28;20040;-50
2023/08/11 00:12:49;;;;;;;8.10;3.50;;;15.70;99.90;;;;;;5033586;28;20477;-53
2023/08/11 00:15:14;;;;;;;5.00;3.47;;;15.70;99.90;;;;;;5033953;28;20160;-53
2023/08/11 00:17:40;;;;;;;9.38;4.50;;;15.70;99.90;;;;;;5033649;28;20075;-49
2023/08/11 00:20:08;;;;;;;6.43;3.90;;;15.70;99.90;;;;;;5034776;28;20105;-51
2023/08/11 00:22:34;;;;;;;5.47;3.53;;;15.60;99.90;;;;;;5033687;28;20034;-51
2023/08/11 00:25:00;;;;;;;6.25;3.60;;;15.60;99.90;;;;;;5033580;28;20512;-52
2023/08/11 00:27:27;;;;;;;5.35;3.50;;;15.60;99.90;;;;;;5033573;28;20075;-53
2023/08/11 00:29:54;;;;;;;7.97;3.60;;;15.50;99.90;;;;;;5033702;28;20029;-51
2023/08/11 00:32:20;;;;;;;10.10;4.25;;;15.50;99.90;;;;;;5015650;28;20029;-53
2023/08/11 00:34:47;;;;;;;9.38;3.58;;;15.50;99.90;;;;;;5015739;28;20076;-52
2023/08/11 00:37:13;;;;;;;12.52;3.90;;;15.50;99.90;;;;;;5033127;28;20033;-53
2023/08/11 00:39:39;;;;;;;7.32;3.45;;;15.50;99.90;;;;;;4999145;28;20561;-50
2023/08/11 00:42:05;;;;;;;6.43;4.03;;;15.50;99.90;;;;;;5033604;28;20479;-51
2023/08/11 00:44:32;;;;;;;6.45;3.70;;;15.50;99.90;;;;;;5015656;28;20072;-52
2023/08/11 00:46:57;;;;;;;4.93;3.50;;;15.40;99.90;;;;;;5015424;28;20060;-51
2023/08/11 00:49:23;;;;;;;5.97;3.58;;;15.40;99.90;;;;;;5033323;28;20029;-52
2023/08/11 00:51:50;;;;;;;6.63;3.65;;;15.40;99.90;;;;;;5015210;28;20028;-49
2023/08/11 00:54:16;;;;;;;7.80;3.65;;;15.30;99.90;;;;;;5015226;28;20025;-53
2023/08/11 00:56:44;;;;;;;6.22;3.22;;;15.40;99.90;;;;;;5033441;28;20025;-53
2023/08/11 00:59:11;;;;;;;6.05;3.50;;;15.30;99.90;;;;;;5015261;28;20041;-53
2023/08/11 01:01:37;;;;;;;5.90;3.65;;;15.30;99.90;;;;;;5015251;28;20045;-54
2023/08/11 01:04:04;;;;;;;6.07;3.58;;;15.30;99.90;;;;;;5032806;28;20025;-51
2023/08/11 01:06:41;;;;;;;5.93;3.47;;;15.30;99.90;;;;;;5032837;28;20029;-52
2023/08/11 01:09:41;;;;;;;6.10;3.45;;;15.30;99.90;;;;;;5032937;28;20132;-50
2023/08/11 01:12:45;;;;;;;6.90;3.50;;;15.20;99.90;;;;;;5015317;28;20036;-51
2023/08/11 01:15:23;;;;;;;7.03;4.00;;;15.20;99.90;;;;;;5032951;28;20108;-49
2023/08/11 01:17:52;;;;;;;5.70;3.75;;;15.20;99.90;;;;;;5032842;28;20026;-54
2023/08/11 01:20:18;;;;;;;6.85;3.67;;;15.20;99.90;;;;;;5015229;28;20033;-52
2023/08/11 01:22:47;;;;;;;5.25;3.35;;;15.10;99.90;;;;;;5014713;28;20116;-51
2023/08/11 01:25:13;;;;;;;5.95;3.70;;;15.10;99.90;;;;;;5014969;28;20440;-51
2023/08/11 01:27:44;;;;;;;6.78;3.60;;;15.10;99.90;;;;;;5014720;28;20048;-51
2023/08/11 01:30:12;;;;;;;5.55;3.60;;;15.10;99.90;;;;;;5014895;28;20120;-48
2023/08/11 01:32:38;;;;;;;6.57;3.63;;;15.00;99.90;;;;;;5032422;28;20026;-50
2023/08/11 01:35:05;;;;;;;6.65;3.75;;;15.00;99.90;;;;;;5014650;28;20033;-50
2023/08/11 01:37:32;;;;;;;5.45;3.58;;;15.00;99.90;;;;;;5014383;28;20032;-53
2023/08/11 01:39:58;;;;;;;6.95;3.58;;;15.00;99.90;;;;;;5014532;28;20067;-52
2023/08/11 01:42:25;;;;;;;7.20;3.72;;;15.00;99.90;;;;;;5032359;28;20436;-51
2023/08/11 01:44:51;;;;;;;6.47;3.80;;;15.00;99.90;;;;;;5014582;28;20112;-51
2023/08/11 01:47:19;;;;;;;5.70;3.63;;;15.00;99.90;;;;;;5014200;28;20130;-52
2023/08/11 01:49:45;;;;;;;5.90;3.90;;;14.90;99.90;;;;;;5032117;28;20040;-52
2023/08/11 01:52:11;;;;;;;7.50;3.75;;;14.90;99.90;;;;;;5032043;28;20092;-50
2023/08/11 01:54:37;;;;;;;8.20;4.22;;;14.90;99.90;;;;;;5032095;28;20461;-48
2023/08/11 01:57:04;;;;;;;6.07;3.95;;;14.90;99.90;;;;;;5031636;28;20105;-51
2023/08/11 01:59:29;;;;;;;6.57;3.90;;;14.90;99.90;;;;;;5014230;28;20029;-51
2023/08/11 02:01:56;;;;;;;7.35;3.70;;;14.90;99.90;;;;;;5013618;28;20084;-50
2023/08/11 02:04:22;;;;;;;8.35;4.35;;;14.90;99.90;;;;;;5014073;28;20419;-53
2023/08/11 02:06:49;;;;;;;6.10;3.85;;;14.80;99.90;;;;;;5014059;28;20035;-52
2023/08/11 02:09:14;;;;;;;6.72;3.58;;;14.80;99.90;;;;;;5031786;28;20109;-52
2023/08/11 02:11:40;;;;;;;5.55;3.58;;;14.80;99.90;;;;;;5031690;28;20577;-50
2023/08/11 02:14:06;;;;;;;5.45;3.53;;;14.70;99.90;;;;;;5013813;28;20025;-51
2023/08/11 02:16:33;;;;;;;6.43;3.88;;;14.70;99.90;;;;;;5013684;28;20067;-52
2023/08/11 02:18:59;;;;;;;5.55;3.60;;;14.70;99.90;;;;;;5013821;28;20092;-49
2023/08/11 02:21:27;;;;;;;6.18;3.70;;;14.70;99.90;;;;;;5013661;28;20029;-48
2023/08/11 02:23:52;;;;;;;6.07;3.70;;;14.70;99.90;;;;;;5031408;28;20100;-49
2023/08/11 02:26:18;;;;;;;5.13;3.42;;;14.60;99.90;;;;;;5013806;28;20557;-50
2023/08/11 02:28:43;;;;;;;7.55;4.00;;;14.60;99.90;;;;;;5031818;28;20036;-49
2023/08/11 02:31:09;;;;;;;5.20;3.55;;;14.60;99.90;;;;;;5013881;28;20080;-53
2023/08/11 02:33:38;;;;;;;6.22;3.88;;;14.60;99.90;;;;;;5031265;28;20033;-53
2023/08/11 02:36:04;;;;;;;6.00;3.80;;;14.60;99.90;;;;;;5031323;28;20540;-52
2023/08/11 02:38:30;;;;;;;6.95;3.92;;;14.60;99.90;;;;;;5013753;28;20116;-50
2023/08/11 02:40:56;;;;;;;8.70;3.97;;;14.60;99.90;;;;;;5031783;28;20030;-50
2023/08/11 02:43:22;;;;;;;9.30;3.70;;;14.50;99.90;;;;;;5013494;28;20504;-51
2023/08/11 02:45:48;;;;;;;5.38;3.63;;;14.50;99.90;;;;;;5013420;28;20120;-52
2023/08/11 02:48:13;;;;;;;8.05;3.72;;;14.50;99.90;;;;;;5013667;28;20489;-51
2023/08/11 02:50:39;;;;;;;5.10;3.35;;;14.50;99.90;;;;;;5015006;28;20172;-51
2023/08/11 02:53:04;;;;;;;5.97;3.35;;;14.50;99.90;;;;;;5030978;28;20029;-49
2023/08/11 02:55:30;;;;;;;8.18;3.90;;;14.50;99.90;;;;;;5013526;28;20040;-49
2023/08/11 02:57:56;;;;;;;7.78;3.72;;;14.40;99.90;;;;;;5031190;28;20389;-51
2023/08/11 03:00:21;;;;;;;6.45;3.85;;;14.40;99.90;;;;;;5014067;28;20505;-53
2023/08/11 03:02:47;;;;;;;8.00;3.78;;;14.40;99.90;;;;;;5031407;28;20417;-51
2023/08/11 03:05:14;;;;;;;6.15;3.45;;;14.40;99.90;;;;;;5013473;28;20061;-51
2023/08/11 03:07:43;;;;;;;6.05;3.38;;;14.40;99.90;;;;;;5013023;28;20116;-53
2023/08/11 03:10:09;;;;;;;7.38;3.28;;;14.40;99.90;;;;;;5013227;28;20034;-53
2023/08/11 03:12:36;;;;;;;6.95;3.42;;;14.40;99.90;;;;;;5013155;28;20043;-49
2023/08/11 03:15:06;;;;;;;8.10;3.35;;;14.40;99.90;;;;;;5012231;28;20132;-48
2023/08/11 03:17:32;;;;;;;5.78;3.58;;;14.30;99.90;;;;;;4996992;28;20040;-50
2023/08/11 03:19:59;;;;;;;4.85;3.05;;;14.30;99.90;;;;;;5012973;28;20371;-52
2023/08/11 03:22:25;;;;;;;5.22;3.30;;;14.30;99.90;;;;;;5013258;28;20116;-49
2023/08/11 03:24:52;;;;;;;5.95;3.67;;;14.30;99.90;;;;;;5031202;28;20029;-47
2023/08/11 03:27:18;;;;;;;5.65;3.50;;;14.20;99.90;;;;;;5012843;28;20120;-48
2023/08/11 03:29:44;;;;;;;7.50;3.33;;;14.30;99.90;;;;;;5030646;28;20121;-48
2023/08/11 03:32:10;;;;;;;5.80;3.22;;;14.30;99.90;;;;;;5030388;28;20506;-48
2023/08/11 03:34:37;;;;;;;6.85;3.25;;;14.30;99.90;;;;;;5012645;28;20034;-48
2023/08/11 03:37:03;;;;;;;6.60;3.58;;;14.30;99.90;;;;;;5012901;28;20036;-51
2023/08/11 03:39:29;;;;;;;5.30;3.03;;;14.20;99.90;;;;;;5012954;28;20076;-50
2023/08/11 03:41:55;;;;;;;4.53;3.10;;;14.20;99.90;;;;;;5012579;28;20164;-48
2023/08/11 03:44:22;;;;;;;5.50;3.70;;;14.20;99.90;;;;;;5012929;28;20025;-48
2023/08/11 03:46:49;;;;;;;5.40;2.97;;;14.20;99.90;;;;;;5012794;28;20022;-51
2023/08/11 03:49:14;;;;;;;4.32;2.95;;;14.20;99.90;;;;;;5030285;28;20112;-49
2023/08/11 03:51:41;;;;;;;6.65;3.38;;;14.20;99.90;;;;;;5012590;28;20192;-49
2023/08/11 03:54:07;;;;;;;6.22;3.70;;;14.10;99.90;;;;;;5012562;28;20124;-49
2023/08/11 03:56:35;;;;;;;6.72;3.45;;;14.10;99.90;;;;;;5012488;28;20026;-53
2023/08/11 03:59:01;;;;;;;7.20;3.40;;;14.10;99.90;;;;;;5012644;28;20112;-53
2023/08/11 04:01:28;;;;;;;8.07;4.03;;;14.10;99.90;;;;;;5012464;28;20117;-49
2023/08/11 04:03:53;;;;;;;7.35;3.70;;;14.20;99.90;;;;;;5012537;28;20034;-53
2023/08/11 04:06:19;;;;;;;5.07;3.15;;;14.20;99.90;;;;;;5012302;28;20498;-52
2023/08/11 04:08:45;;;;;;;8.20;3.60;;;14.20;99.90;;;;;;5030366;28;20120;-50
2023/08/11 04:11:11;;;;;;;4.13;2.95;;;14.20;99.90;;;;;;5030176;28;20029;-49
2023/08/11 04:13:36;;;;;;;8.20;3.85;;;14.20;99.90;;;;;;5029993;28;20087;-51
2023/08/11 04:16:02;;;;;;;7.05;3.42;;;14.20;99.90;;;;;;5012199;28;20026;-49
2023/08/11 04:18:28;;;;;;;5.38;3.05;;;14.20;99.90;;;;;;5030576;28;20120;-50
2023/08/11 04:20:54;;;;;;;5.75;2.90;;;14.20;99.90;;;;;;5012469;28;20056;-52
2023/08/11 04:23:20;;;;;;;6.40;3.33;;;14.20;99.90;;;;;;5012156;28;20029;-49
2023/08/11 04:25:46;;;;;;;7.28;3.72;;;14.20;99.90;;;;;;5013170;28;20032;-51
2023/08/11 04:28:12;;;;;;;8.32;3.55;;;14.20;99.90;;;;;;5015927;28;20033;-49
2023/08/11 04:30:38;;;;;;;5.95;3.47;;;14.20;99.90;;;;;;5015780;28;20030;-54
2023/08/11 04:33:05;;;;;;;8.13;3.13;;;14.20;99.90;;;;;;5015799;28;20502;-51
2023/08/11 04:35:33;;;;;;;6.68;3.15;;;14.20;99.90;;;;;;5015530;28;20490;-49
2023/08/11 04:37:59;;;;;;;6.50;3.15;;;14.20;99.90;;;;;;5033627;28;20490;-49
2023/08/11 04:40:27;;;;;;;6.15;3.25;;;14.20;99.90;;;;;;5015731;28;20411;-53
2023/08/11 04:42:53;;;;;;;6.55;3.00;;;14.20;99.90;;;;;;4998965;28;20113;-51
2023/08/11 04:45:26;;;;;;;5.60;2.70;;;14.20;99.90;;;;;;5015258;28;20435;-52
2023/08/11 04:47:51;;;;;;;6.45;2.67;;;14.20;99.90;;;;;;5015650;28;20029;-49
2023/08/11 04:50:19;;;;;;;5.93;3.03;;;14.20;99.90;;;;;;5015819;28;20088;-49
2023/08/11 04:52:47;;;;;;;6.07;2.92;;;14.20;99.90;;;;;;5015311;28;20057;-49
2023/08/11 04:55:13;;;;;;;6.88;3.13;;;14.20;99.90;;;;;;5015513;28;20422;-54
2023/08/11 04:57:39;;;;;;;7.30;3.90;;;14.30;99.90;;;;;;5015066;28;20025;-53
2023/08/11 05:00:06;;;;;;;6.68;3.38;;;14.30;99.90;;;;;;5015085;28;20036;-53
2023/08/11 05:02:33;;;;;;;8.52;3.75;;;14.30;99.90;;;;;;5033605;28;20106;-50
2023/08/11 05:04:58;;;;;;;6.15;3.17;;;14.40;99.90;;;;;;5033371;28;20040;-52
2023/08/11 05:07:24;;;;;;;9.23;2.97;;;14.40;99.90;;;;;;5032907;28;20029;-53
2023/08/11 05:09:50;;;;;;;6.18;3.25;;;14.40;99.90;;;;;;5033050;28;20061;-51
2023/08/11 05:12:16;;;;;;;10.27;3.58;;;14.50;99.90;;;;;;5032580;28;20482;-49
2023/08/11 05:14:42;;;;;;;6.20;2.85;;;14.50;99.90;;;;;;5032610;28;20049;-49
2023/08/11 05:17:08;;;;;;;8.98;3.17;;;14.60;99.90;;;;;;5032400;28;20030;-48
2023/08/11 05:19:36;;;;;;;5.57;2.90;;;14.60;99.90;;;;;;5032697;28;20048;-50
2023/08/11 05:22:02;;;;;;;8.35;3.38;;;14.60;99.90;;;;;;5032423;28;20482;-49
2023/08/11 05:24:28;;;;;;;7.32;2.80;;;14.60;99.90;;;;;;5032506;28;20049;-50
2023/08/11 05:26:53;;;;;;;10.82;4.22;;;14.70;99.90;;;;;;5032228;28;20114;-50
2023/08/11 05:29:19;;;;;;;7.32;3.53;;;14.70;99.90;;;;;;5014658;28;20112;-50
2023/08/11 05:31:45;;;;;;;10.45;3.58;;;14.80;99.90;;;;;;5032265;28;20025;-52
2023/08/11 05:34:10;;;;;;;6.80;3.60;;;14.90;99.90;;;;;;5032210;28;20112;-49
2023/08/11 05:36:36;;;;;;;8.40;3.72;;;14.90;99.90;;;;;;5031669;28;20076;-48
2023/08/11 05:39:03;;;;;;;7.10;3.70;;;15.00;99.90;;;;;;5031428;28;20040;-49
2023/08/11 05:41:29;;;;;;;8.13;4.20;;;15.10;99.90;;;;;;5031984;28;20029;-50
2023/08/11 05:43:54;;;;;;;8.05;3.50;;;15.10;99.90;;;;;;5031918;28;20090;-50
2023/08/11 05:46:20;;;;;;;7.50;3.45;;;15.30;99.90;;;;;;5031911;28;20109;-48
2023/08/11 05:48:48;;;;;;;6.50;2.60;;;15.40;99.90;;;;;;5014392;28;20083;-49
2023/08/11 05:51:15;;;;;;;5.97;2.60;;;15.50;99.90;;;;;;5014417;28;20087;-52
2023/08/11 05:53:41;;;;;;;4.63;2.40;;;15.60;99.90;;;;;;5031872;28;20038;-49
2023/08/11 05:56:06;;;;;;;7.38;2.78;;;16.00;99.90;;;;;;5031861;28;20041;-49
2023/08/11 05:58:32;;;;;;;5.57;2.40;;;16.20;99.90;;;;;;5031809;28;20513;-49
2023/08/11 06:00:58;;;;;;;4.25;2.25;;;16.40;99.90;;;;;;5031870;28;20049;-51
2023/08/11 06:03:29;;;;;;;4.00;1.92;;;16.70;99.90;;;;;;5031589;28;20022;-49
2023/08/11 06:05:59;;;;;;;3.83;2.20;;;16.80;99.90;;;;;;5014011;28;20044;-53
2023/08/11 06:08:25;;;;;;;4.90;2.17;;;17.00;99.90;;;;;;5031628;28;20172;-49
2023/08/11 06:10:51;;;;;;;4.82;2.40;;;17.10;99.90;;;;;;5031578;28;20036;-48
2023/08/11 06:13:16;;;;;;;4.35;2.33;;;17.20;99.90;;;;;;5031495;28;20111;-49
2023/08/11 06:15:42;;;;;;;8.50;2.85;;;17.40;99.90;;;;;;5031557;28;20064;-51
2023/08/11 06:18:07;;;;;;;5.95;2.92;;;17.50;99.90;;;;;;5031475;28;20030;-49
2023/08/11 06:20:33;;;;;;;7.10;3.03;;;17.60;99.90;;;;;;5014016;28;20466;-49
2023/08/11 06:22:59;;;;;;;4.07;2.33;;;17.70;99.90;;;;;;5031354;28;20072;-52
2023/08/11 06:25:25;;;;;;;4.70;1.88;;;17.90;99.90;;;;;;5031353;28;20079;-49
2023/08/11 06:27:51;;;;;;;4.22;2.40;;;18.10;99.90;;;;;;5031526;28;20033;-50
2023/08/11 06:30:16;;;;;;;7.57;2.15;;;18.20;99.90;;;;;;5031963;28;20117;-50
2023/08/11 06:32:43;;;;;;;3.13;2.13;;;18.30;99.90;;;;;;5031469;28;20029;-50
2023/08/11 06:35:08;;;;;;;4.55;1.80;;;18.40;99.90;;;;;;5014257;28;20398;-51
2023/08/11 06:37:34;;;;;;;6.82;1.80;;;18.60;99.90;;;;;;5031255;28;20029;-49
2023/08/11 06:40:00;;;;;;;4.57;2.00;;;18.70;99.90;;;;;;5031440;28;20029;-50
2023/08/11 06:42:28;;;;;;;3.67;1.80;;;18.80;99.90;;;;;;5012702;28;20037;-51
2023/08/11 06:45:06;;;;;;;3.70;1.35;;;19.00;99.90;;;;;;5031371;28;20147;-54
2023/08/11 06:47:34;;;;;;;3.80;1.65;;;19.00;99.90;;;;;;5030957;28;20048;-51
2023/08/11 06:50:00;;;;;;;3.05;1.77;;;19.10;99.90;;;;;;4997021;28;20041;-51
2023/08/11 06:52:26;;;;;;;7.13;2.28;;;19.20;99.90;;;;;;5013094;28;20109;-48
2023/08/11 06:54:52;;;;;;;4.47;2.05;;;19.40;99.90;;;;;;5031097;28;20604;-48
2023/08/11 06:57:20;;;;;;;5.75;2.67;;;19.50;99.90;;;;;;5012904;28;20116;-52
2023/08/11 06:59:46;;;;;;;5.50;1.70;;;19.60;99.90;;;;;;5031143;28;20256;-52
2023/08/11 07:02:11;;;;;;;8.02;2.83;;;19.70;99.90;;;;;;5031145;28;20091;-51
2023/08/11 07:04:37;;;;;;;4.28;2.05;;;19.80;99.90;;;;;;5031157;28;20065;-50
2023/08/11 07:07:03;;;;;;;6.18;2.13;;;19.90;99.90;;;;;;5031017;28;20481;-53
2023/08/11 07:09:28;;;;;;;3.05;1.42;;;20.10;99.90;;;;;;5031386;28;20445;-48
2023/08/11 07:11:54;;;;;;;6.60;1.85;;;20.20;99.90;;;;;;5031067;28;20112;-52
2023/08/11 07:14:19;;;;;;;4.40;1.52;;;20.30;99.90;;;;;;5031079;28;20037;-53
2023/08/11 07:16:45;;;;;;;3.90;1.58;;;20.40;99.90;;;;;;5030974;28;20056;-51
2023/08/11 07:19:11;;;;;;;3.00;1.60;;;20.50;99.90;;;;;;5030933;28;20037;-51
2023/08/11 07:21:36;;;;;;;4.20;1.58;;;20.50;99.90;;;;;;5030673;28;20042;-52
2023/08/11 07:24:02;;;;;;;3.13;1.50;;;20.70;99.90;;;;;;5031087;28;20029;-51
2023/08/11 07:26:28;;;;;;;6.00;1.85;;;20.70;99.90;;;;;;5030829;28;20035;-52
2023/08/11 07:28:54;;;;;;;5.28;1.83;;;20.80;99.90;;;;;;5030857;28;20044;-52
2023/08/11 07:31:19;;;;;;;6.97;2.40;;;21.10;99.90;;;;;;5012964;28;20061;-50
2023/08/11 07:33:45;;;;;;;3.35;1.77;;;21.40;99.90;;;;;;5030712;28;20164;-53
2023/08/11 07:36:11;;;;;;;3.70;1.67;;;21.60;99.90;;;;;;5030623;28;20163;-50
2023/08/11 07:38:36;;;;;;;4.07;1.50;;;21.60;99.90;;;;;;5012918;28;20473;-53
2023/08/11 07:41:02;;;;;;;2.30;1.52;;;21.70;99.90;;;;;;5030609;28;20025;-50
2023/08/11 07:43:27;;;;;;;5.55;1.90;;;21.60;99.90;;;;;;5030464;28;20046;-51
2023/08/11 07:45:53;;;;;;;4.93;1.48;;;21.70;99.90;;;;;;5030619;28;20017;-53
2023/08/11 07:48:19;;;;;;;3.78;2.00;;;21.60;99.90;;;;;;5031012;28;20040;-52
2023/08/11 07:50:45;;;;;;;5.13;1.50;;;21.60;99.90;;;;;;5030849;28;20156;-50
2023/08/11 07:53:11;;;;;;;4.72;1.70;;;21.70;99.90;;;;;;5030688;28;20037;-50
2023/08/11 07:55:36;;;;;;;4.05;2.63;;;21.80;99.90;;;;;;5030199;28;20037;-50
2023/08/11 07:58:03;;;;;;;4.78;1.80;;;21.80;99.90;;;;;;5030351;28;20044;-51
2023/08/11 08:00:29;;;;;;;5.85;1.83;;;21.80;99.90;;;;;;5031024;28;20060;-47
2023/08/11 08:02:55;;;;;;;3.28;1.60;;;21.70;99.90;;;;;;5034481;28;20035;-51
2023/08/11 08:05:21;;;;;;;5.15;1.70;;;21.70;99.90;;;;;;5034159;28;20462;-50
2023/08/11 08:07:48;;;;;;;4.68;2.00;;;21.80;99.90;;;;;;5033763;28;20049;-52
2023/08/11 08:10:14;;;;;;;3.33;1.40;;;22.00;99.90;;;;;;5034069;28;20036;-52
2023/08/11 08:12:42;;;;;;;2.90;1.60;;;22.10;99.90;;;;;;5033778;28;20069;-50
2023/08/11 08:15:10;;;;;;;3.60;1.73;;;22.10;99.90;;;;;;5034050;28;20033;-50
2023/08/11 08:17:36;;;;;;;6.10;2.35;;;22.10;99.90;;;;;;5033983;28;20108;-49
2023/08/11 08:20:13;;;;;;;4.22;2.13;;;22.10;99.90;;;;;;5034592;28;20048;-48
2023/08/11 08:22:39;;;;;;;3.78;1.95;;;22.20;99.90;;;;;;5033958;28;20037;-54
2023/08/11 08:25:06;;;;;;;4.63;1.60;;;22.30;99.90;;;;;;5016285;28;20041;-53
2023/08/11 08:27:37;;;;;;;3.30;1.50;;;22.40;99.90;;;;;;5015833;28;20112;-53
2023/08/11 08:30:03;;;;;;;3.83;2.13;;;22.40;99.90;;;;;;5033711;28;20029;-52
2023/08/11 08:32:29;;;;;;;4.65;1.90;;;22.50;99.90;;;;;;5033273;28;20129;-53
2023/08/11 08:34:55;;;;;;;6.85;1.98;;;22.50;99.90;;;;;;5033691;28;20395;-53
2023/08/11 08:37:21;;;;;;;3.30;1.80;;;22.50;99.90;;;;;;5033160;28;20458;-53
2023/08/11 08:39:47;;;;;;;4.45;2.00;;;22.60;99.90;;;;;;5033544;28;20061;-51
2023/08/11 08:42:15;;;;;;;4.60;1.90;;;22.80;99.90;;;;;;5033198;28;20040;-52
2023/08/11 08:44:46;;;;;;;4.03;1.70;;;23.00;99.90;;;;;;5015718;28;20033;-53
2023/08/11 08:47:12;;;;;;;4.28;1.58;;;23.10;99.90;;;;;;5033158;28;20041;-51
2023/08/11 08:49:39;;;;;;;3.10;1.60;;;23.20;99.90;;;;;;5033297;28;20431;-54
2023/08/11 08:52:06;;;;;;;4.15;1.88;;;23.30;99.90;;;;;;5033271;28;20086;-53
2023/08/11 08:54:32;;;;;;;4.22;1.38;;;23.40;99.90;;;;;;5033149;28;20430;-51
2023/08/11 08:56:59;;;;;;;8.40;2.33;;;23.50;99.90;;;;;;5033752;28;20032;-52
2023/08/11 08:59:25;;;;;;;4.32;1.90;;;23.50;99.90;;;;;;5033215;28;20073;-50
2023/08/11 09:01:51;;;;;;;3.78;1.60;;;23.60;99.90;;;;;;5033276;28;20493;-50
2023/08/11 09:04:19;;;;;;;6.18;1.83;;;23.70;99.90;;;;;;5015630;28;20029;-50
2023/08/11 09:06:45;;;;;;;5.35;1.80;;;23.90;99.90;;;;;;5032931;28;20225;-53
2023/08/11 09:09:12;;;;;;;4.03;1.90;;;23.90;99.90;;;;;;5032899;28;20033;-50
2023/08/11 09:11:38;;;;;;;4.13;1.70;;;23.90;99.90;;;;;;5032894;28;20447;-52
2023/08/11 09:14:07;;;;;;;2.70;1.60;;;23.90;99.90;;;;;;5032663;28;20041;-50
2023/08/11 09:16:37;;;;;;;4.93;1.63;;;23.90;99.90;;;;;;5032552;28;20029;-51
2023/08/11 09:19:10;;;;;;;6.10;1.95;;;24.10;99.90;;;;;;5032623;28;20066;-51
2023/08/11 09:21:36;;;;;;;4.43;1.80;;;24.20;99.90;;;;;;5032752;28;20029;-53
2023/08/11 09:24:03;;;;;;;3.55;1.70;;;24.20;99.90;;;;;;5032523;28;20064;-52
2023/08/11 09:26:28;;;;;;;4.68;2.00;;;24.30;99.90;;;;;;5032360;28;20478;-53
2023/08/11 09:28:54;;;;;;;6.15;1.92;;;24.30;99.90;;;;;;5032546;28;20108;-53
2023/08/11 09:31:22;;;;;;;4.80;1.50;;;24.40;99.90;;;;;;5032434;28;20057;-53
2023/08/11 09:33:48;;;;;;;3.38;1.70;;;24.60;99.90;;;;;;5032280;28;20037;-51
2023/08/11 09:36:17;;;;;;;3.97;1.70;;;24.70;99.80;;;;;;5032690;28;20112;-52
2023/08/11 09:38:51;;;;;;;3.65;1.67;;;24.70;99.90;;;;;;5032660;28;20044;-52
2023/08/11 09:41:17;;;;;;;4.68;1.38;;;24.80;99.90;;;;;;5032321;28;20064;-52
2023/08/11 09:43:48;;;;;;;5.85;2.08;;;24.80;98.70;;;;;;5032292;28;20076;-50
2023/08/11 09:46:14;;;;;;;3.35;1.63;;;24.80;98.70;;;;;;5032177;28;20506;-51
2023/08/11 09:48:39;;;;;;;5.65;1.80;;;25.00;99.10;;;;;;5032124;28;20075;-51
2023/08/11 09:51:10;;;;;;;6.22;2.10;;;25.00;99.90;;;;;;5032243;28;20453;-52
2023/08/11 09:53:40;;;;;;;4.80;2.22;;;25.20;98.50;;;;;;5031673;28;20072;-53
2023/08/11 09:56:07;;;;;;;4.32;2.00;;;25.40;98.10;;;;;;5031810;28;20398;-53
2023/08/11 09:58:37;;;;;;;4.53;2.13;;;25.40;98.60;;;;;;5031915;28;20060;-52
2023/08/11 10:01:04;;;;;;;5.97;2.08;;;25.60;98.40;;;;;;5031983;28;20079;-53
2023/08/11 10:03:36;;;;;;;6.78;2.60;;;25.60;98.90;;;;;;5031574;28;20053;-51
2023/08/11 10:06:03;;;;;;;5.63;2.38;;;25.80;98.20;;;;;;5031867;28;20021;-50
2023/08/11 10:08:30;;;;;;;5.65;2.10;;;25.90;98.50;;;;;;5031670;28;20044;-51
2023/08/11 10:10:57;;;;;;;4.00;2.05;;;25.90;98.50;;;;;;5031878;28;20033;-54
2023/08/11 10:13:26;;;;;;;8.55;2.15;;;25.80;97.40;;;;;;5031702;28;20037;-52
2023/08/11 10:15:55;;;;;;;6.82;2.20;;;25.90;97.30;;;;;;5031361;28;20048;-53
2023/08/11 10:18:20;;;;;;;3.63;1.85;;;25.90;97.50;;;;;;5031510;28;20164;-52
2023/08/11 10:20:50;;;;;;;5.90;2.05;;;25.90;97.50;;;;;;5032302;28;20458;-49
2023/08/11 10:23:17;;;;;;;5.82;2.15;;;26.10;97.90;;;;;;5030905;28;20029;-51
2023/08/11 10:25:45;;;;;;;6.68;2.80;;;26.20;96.20;;;;;;5031297;28;20049;-52
2023/08/11 10:28:12;;;;;;;4.90;2.45;;;26.20;97.10;;;;;;5031336;28;20440;-49
2023/08/11 10:30:38;;;;;;;9.25;2.90;;;26.20;97.10;;;;;;5031324;28;20037;-51
2023/08/11 10:33:09;;;;;;;8.18;2.50;;;26.30;97.00;;;;;;5031121;28;20067;-53
2023/08/11 10:35:46;;;;;;;6.55;2.60;;;26.40;96.60;;;;;;5031066;28;20057;-50
2023/08/11 10:38:12;;;;;;;7.25;2.85;;;26.40;95.80;;;;;;5031169;28;20034;-50
2023/08/11 10:40:38;;;;;;;8.98;2.50;;;26.40;96.30;;;;;;5031402;28;20032;-49
2023/08/11 10:43:04;;;;;;;8.20;4.45;;;26.50;96.10;;;;;;5031491;28;20025;-51
2023/08/11 10:45:34;;;;;;;7.43;3.50;;;26.50;96.90;;;;;;5031021;28;20117;-53
2023/08/11 10:48:07;;;;;;;6.30;2.60;;;26.60;96.90;;;;;;5030955;28;20124;-54
2023/08/11 10:50:34;;;;;;;8.60;2.45;;;26.70;96.50;;;;;;5031118;28;20040;-50
2023/08/11 10:53:16;;;;;;;4.30;2.22;;;26.80;96.20;;;;;;5030662;28;20037;-52
2023/08/11 10:55:52;;;;;;;5.25;2.20;;;26.90;95.70;;;;;;5030755;28;20474;-53
2023/08/11 10:58:18;;;;;;;5.40;2.40;;;27.00;95.60;;;;;;5012964;28;20033;-49
2023/08/11 11:00:43;;;;;;;7.38;2.28;;;26.90;96.00;;;;;;5030858;28;20025;-50
2023/08/11 11:03:11;;;;;;;4.32;2.53;;;27.10;95.80;;;;;;5030512;28;20518;-50
2023/08/11 11:05:40;;;;;;;5.18;1.77;;;27.20;95.90;;;;;;5030521;28;20037;-54
2023/08/11 11:08:06;;;;;;;3.67;1.83;;;27.20;94.60;;;;;;5030639;28;20475;-51
2023/08/11 11:10:32;;;;;;;5.68;1.90;;;27.20;94.80;;;;;;5030825;28;20040;-50
2023/08/11 11:12:57;;;;;;;3.78;2.10;;;27.30;95.70;;;;;;5030397;28;20034;-52
2023/08/11 11:15:26;;;;;;;6.40;2.30;;;27.40;94.80;;;;;;5030788;28;20037;-54
2023/08/11 11:17:52;;;;;;;8.35;3.50;;;27.40;95.00;;;;;;5030819;28;20548;-52
2023/08/11 11:20:18;;;;;;;6.32;2.47;;;27.50;93.90;;;;;;5013077;28;20056;-52
2023/08/11 11:22:48;;;;;;;7.53;4.20;;;27.50;92.60;;;;;;5030346;28;20029;-53
2023/08/11 11:25:15;;;;;;;9.88;4.57;;;27.50;93.30;;;;;;5030607;28;20029;-53
2023/08/11 11:27:42;;;;;;;8.82;4.25;;;27.60;93.60;;;;;;5030604;28;20033;-53
2023/08/11 11:30:09;;;;;;;7.63;3.40;;;27.80;92.90;;;;;;5030825;28;20037;-54
2023/08/11 11:32:35;;;;;;;5.68;2.55;;;27.90;93.30;;;;;;5030765;28;20043;-53
2023/08/11 11:35:00;;;;;;;7.00;3.30;;;27.80;92.00;;;;;;5031454;28;20033;-51
2023/08/11 11:37:26;;;;;;;3.85;2.13;;;27.70;93.90;;;;;;5034505;28;20041;-54
2023/08/11 11:39:54;;;;;;;6.70;2.53;;;27.60;93.30;;;;;;5034776;28;20025;-52
2023/08/11 11:42:19;;;;;;;13.00;2.77;;;27.80;92.90;;;;;;5034544;28;20033;-53
2023/08/11 11:44:45;;;;;;;5.30;2.35;;;27.90;93.30;;;;;;5034816;28;20264;-52
2023/08/11 11:47:14;;;;;;;6.57;2.53;;;27.90;91.90;;;;;;5034429;28;20389;-52
2023/08/11 11:49:41;;;;;;;4.68;1.88;;;27.90;92.20;;;;;;5034642;28;20025;-53
2023/08/11 11:52:07;;;;;;;6.38;2.30;;;27.80;92.40;;;;;;5016514;28;20029;-52
2023/08/11 11:54:33;;;;;;;3.78;2.05;;;27.80;93.00;;;;;;5016316;28;20470;-52
2023/08/11 11:57:02;;;;;;;4.35;2.30;;;27.80;93.00;;;;;;5034094;28;20025;-54
2023/08/11 11:59:28;;;;;;;3.45;2.03;;;27.90;92.80;;;;;;5016594;28;20045;-54
2023/08/11 12:02:00;;;;;;;5.07;2.58;;;27.90;92.80;;;;;;5034051;28;20041;-53
2023/08/11 12:04:26;;;;;;;4.60;2.17;;;28.00;93.70;;;;;;5034099;28;20051;-52
2023/08/11 12:06:52;;;;;;;5.70;3.00;;;28.00;93.00;;;;;;5033690;28;20406;-54
2023/08/11 12:09:19;;;;;;;4.25;2.10;;;28.10;93.30;;;;;;5032756;28;20130;-52
2023/08/11 12:11:45;;;;;;;6.25;2.75;;;28.10;93.10;;;;;;5032599;28;20080;-53
2023/08/11 12:14:13;;;;;;;5.20;2.35;;;28.10;92.90;;;;;;5032780;28;20065;-51
2023/08/11 12:16:39;;;;;;;6.80;2.53;;;28.30;92.80;;;;;;5032394;28;20037;-53
2023/08/11 12:19:06;;;;;;;3.53;2.03;;;28.50;92.20;;;;;;5032472;28;20082;-52
2023/08/11 12:21:31;;;;;;;3.90;2.08;;;28.50;91.20;;;;;;5014528;28;20032;-51
2023/08/11 12:23:57;;;;;;;3.72;2.00;;;28.40;91.70;;;;;;5032257;28;20049;-54
2023/08/11 12:26:23;;;;;;;4.50;2.50;;;28.40;91.30;;;;;;5032488;28;20068;-50
2023/08/11 12:28:48;;;;;;;5.38;2.53;;;28.50;91.80;;;;;;5032493;28;20120;-49
2023/08/11 12:31:14;;;;;;;3.65;1.88;;;28.50;91.90;;;;;;5014674;28;20040;-49
2023/08/11 12:33:40;;;;;;;7.22;2.17;;;28.50;92.00;;;;;;5032029;28;20025;-50
2023/08/11 12:36:05;;;;;;;4.07;2.00;;;28.50;92.30;;;;;;5032077;28;20055;-50
2023/08/11 12:38:33;;;;;;;3.63;2.00;;;28.60;92.70;;;;;;5032184;28;20124;-53
2023/08/11 12:40:58;;;;;;;3.90;1.80;;;28.60;91.00;;;;;;5032208;28;20029;-49
2023/08/11 12:43:24;;;;;;;4.00;1.98;;;28.70;91.30;;;;;;5032181;28;20031;-53